Time;durP1;ratioP1;P1;durP2;ratioP2;P2;SDS_P1;SDS_P2;PMS_P1;PMS_P2;Temp;Humidity;BMP_temperature;BMP_pressure;BME280_temperature;BME280_humidity;BME280_pressure;Samples;Min_cycle;Max_cycle;Signal;HPM_P1;HPM_P2
2022/08/24 00:01:15;;;;;;;10.75;3.90;;;;;;;15.23;100.00;90749.66;5031671;28;20084;-62
2022/08/24 00:03:42;;;;;;;5.43;3.60;;;;;;;15.21;100.00;90749.22;5031779;28;20426;-62
2022/08/24 00:06:11;;;;;;;6.63;3.63;;;;;;;15.14;100.00;90750.91;5031434;28;20156;-62
2022/08/24 00:08:37;;;;;;;4.78;3.15;;;;;;;15.15;100.00;90744.44;5031418;28;20434;-62
2022/08/24 00:11:04;;;;;;;4.38;3.00;;;;;;;15.11;100.00;90746.22;5031472;28;20458;-62
2022/08/24 00:13:30;;;;;;;6.05;3.83;;;;;;;15.00;100.00;90745.94;5031423;28;20453;-62
2022/08/24 00:15:56;;;;;;;4.28;3.20;;;;;;;14.94;100.00;90752.63;5031349;28;20116;-62
2022/08/24 00:18:22;;;;;;;5.45;3.72;;;;;;;14.82;100.00;90756.13;5031076;28;20083;-62
2022/08/24 00:20:47;;;;;;;3.88;2.97;;;;;;;14.84;100.00;90759.25;5031199;28;20021;-62
2022/08/24 00:23:14;;;;;;;6.85;3.38;;;;;;;14.88;100.00;90746.75;5031270;28;20034;-62
2022/08/24 00:25:40;;;;;;;4.72;3.90;;;;;;;14.89;100.00;90758.25;5031244;28;20182;-62
2022/08/24 00:28:06;;;;;;;7.22;3.90;;;;;;;14.91;100.00;90745.28;5031417;28;20060;-61
2022/08/24 00:30:33;;;;;;;5.72;4.13;;;;;;;14.92;100.00;90746.84;5031284;28;20064;-61
2022/08/24 00:32:58;;;;;;;6.85;3.90;;;;;;;14.91;100.00;90747.97;5031107;28;20040;-62
2022/08/24 00:35:25;;;;;;;6.75;3.80;;;;;;;14.97;100.00;90760.00;5031215;28;20037;-62
2022/08/24 00:37:52;;;;;;;5.50;4.03;;;;;;;14.94;100.00;90763.34;5031332;28;20025;-61
2022/08/24 00:40:25;;;;;;;4.88;3.92;;;;;;;14.90;100.00;90771.28;5031074;28;20036;-62
2022/08/24 00:42:52;;;;;;;6.80;4.70;;;;;;;14.84;100.00;90769.19;5031030;28;20112;-62
2022/08/24 00:45:19;;;;;;;6.75;4.15;;;;;;;14.78;100.00;90781.25;5031048;28;20029;-62
2022/08/24 00:47:54;;;;;;;10.32;4.68;;;;;;;14.63;100.00;90780.81;5030960;28;20510;-62
2022/08/24 00:50:42;;;;;;;7.53;4.72;;;;;;;14.58;100.00;90788.28;5030947;28;20122;-62
2022/08/24 00:53:26;;;;;;;5.85;4.03;;;;;;;14.54;100.00;90782.06;5030869;28;20025;-62
2022/08/24 00:55:56;;;;;;;6.28;4.00;;;;;;;14.55;100.00;90795.09;5030925;28;20411;-62
2022/08/24 00:58:28;;;;;;;7.70;4.53;;;;;;;14.55;100.00;90800.47;5030811;28;20056;-62
2022/08/24 01:00:58;;;;;;;5.30;3.77;;;;;;;14.54;100.00;90803.47;5030879;28;20032;-62
2022/08/24 01:03:26;;;;;;;7.35;4.68;;;;;;;14.54;100.00;90798.13;5030825;28;20084;-62
2022/08/24 01:05:52;;;;;;;7.32;5.15;;;;;;;14.56;100.00;90794.00;5030822;28;20042;-62
2022/08/24 01:08:19;;;;;;;5.85;4.60;;;;;;;14.56;100.00;90802.03;5030731;28;20104;-62
2022/08/24 01:10:50;;;;;;;7.05;4.68;;;;;;;14.56;100.00;90807.38;5031085;28;20080;-62
2022/08/24 01:13:16;;;;;;;7.20;4.95;;;;;;;14.54;100.00;90808.81;5030661;28;20187;-62
2022/08/24 01:15:45;;;;;;;6.20;4.10;;;;;;;14.56;100.00;90812.72;5030723;28;20108;-62
2022/08/24 01:21:02;;;;;;;7.70;5.40;;;;;;;14.55;100.00;90803.13;5030779;28;20087;-62
2022/08/24 01:23:53;;;;;;;4.45;3.45;;;;;;;14.49;100.00;90809.03;5030629;28;20048;-62
2022/08/24 01:26:25;;;;;;;6.22;4.03;;;;;;;14.36;100.00;90813.59;5030663;28;20490;-61
2022/08/24 01:28:54;;;;;;;4.40;3.55;;;;;;;14.24;100.00;90811.69;5030844;28;20061;-62
2022/08/24 01:31:24;;;;;;;5.90;4.32;;;;;;;14.20;100.00;90821.50;5032167;28;20108;-62
2022/08/24 01:33:51;;;;;;;6.97;4.30;;;;;;;14.12;100.00;90826.94;5034383;28;20103;-62
2022/08/24 01:36:23;;;;;;;5.63;4.00;;;;;;;14.05;100.00;90817.56;5034336;28;20041;-62
2022/08/24 01:38:49;;;;;;;5.00;3.60;;;;;;;14.01;100.00;90823.88;5034319;28;20033;-62
2022/08/24 01:41:15;;;;;;;5.97;4.18;;;;;;;14.08;100.00;90830.28;5034298;28;20653;-61
2022/08/24 01:43:40;;;;;;;6.53;4.47;;;;;;;14.08;100.00;90834.84;5034166;28;20029;-61
2022/08/24 01:46:06;;;;;;;7.55;4.15;;;;;;;14.02;100.00;90834.25;5016483;28;20025;-62
2022/08/24 01:48:31;;;;;;;6.85;4.35;;;;;;;13.98;100.00;90838.72;5034066;28;20155;-62
2022/08/24 01:50:57;;;;;;;7.72;4.43;;;;;;;14.01;100.00;90832.69;5034043;28;20030;-62
2022/08/24 01:53:22;;;;;;;6.32;4.30;;;;;;;13.98;100.00;90832.56;5033968;28;20025;-62
2022/08/24 01:55:49;;;;;;;6.35;4.93;;;;;;;13.95;100.00;90828.69;5034044;28;20076;-62
2022/08/24 01:58:14;;;;;;;6.35;4.38;;;;;;;13.89;100.00;90827.34;5034223;28;20050;-62
2022/08/24 02:00:40;;;;;;;8.10;5.30;;;;;;;13.94;100.00;90834.34;5034196;28;20487;-62
2022/08/24 02:03:06;;;;;;;7.50;5.93;;;;;;;13.98;100.00;90838.72;5033718;28;20400;-62
2022/08/24 02:05:32;;;;;;;7.80;5.65;;;;;;;13.98;100.00;90838.72;5038243;28;20044;-62
2022/08/24 02:07:58;;;;;;;6.47;4.80;;;;;;;13.98;100.00;90846.72;5053884;28;20063;-61
2022/08/24 02:10:23;;;;;;;7.10;4.75;;;;;;;13.97;100.00;90847.84;5053662;28;20060;-61
2022/08/24 02:12:56;;;;;;;7.30;5.20;;;;;;;14.01;100.00;90850.63;5053535;28;20434;-62
2022/08/24 02:15:39;;;;;;;9.20;4.70;;;;;;;14.17;100.00;90840.84;5053575;28;20044;-62
2022/08/24 02:18:08;;;;;;;7.65;5.55;;;;;;;14.21;100.00;90835.66;5053443;28;20040;-62
2022/08/24 02:20:35;;;;;;;6.50;4.90;;;;;;;14.32;100.00;90840.22;5053692;28;20429;-61
2022/08/24 02:23:02;;;;;;;9.77;4.97;;;;;;;14.43;100.00;90837.13;5053610;28;20066;-62
2022/08/24 02:25:29;;;;;;;7.10;4.78;;;;;;;14.42;100.00;90839.00;5053432;28;20075;-61
2022/08/24 02:27:59;;;;;;;8.05;5.18;;;;;;;14.42;100.00;90844.38;5053669;28;20107;-61
2022/08/24 02:30:25;;;;;;;10.40;5.07;;;;;;;14.43;100.00;90850.50;5053337;28;20499;-62
2022/08/24 02:32:51;;;;;;;7.22;5.20;;;;;;;14.41;100.00;90860.75;5053376;28;20469;-62
2022/08/24 02:35:16;;;;;;;8.90;5.10;;;;;;;14.41;100.00;90858.06;5053213;28;20037;-62
2022/08/24 02:37:42;;;;;;;7.40;5.55;;;;;;;14.44;100.00;90855.53;5053113;28;20495;-61
2022/08/24 02:40:08;;;;;;;8.90;5.38;;;;;;;14.59;100.00;90854.88;5053143;28;20037;-62
2022/08/24 02:42:35;;;;;;;8.50;5.80;;;;;;;14.75;100.00;90848.88;5052849;28;20163;-62
2022/08/24 02:45:01;;;;;;;8.25;5.32;;;;;;;14.81;100.00;90852.88;5053004;28;20037;-62
2022/08/24 02:47:27;;;;;;;7.93;5.15;;;;;;;14.85;100.00;90856.47;5052937;28;20040;-62
2022/08/24 02:49:52;;;;;;;7.32;4.82;;;;;;;15.04;100.00;90859.34;5052863;28;20042;-62
2022/08/24 02:52:18;;;;;;;9.02;6.15;;;;;;;15.07;100.00;90847.94;5052882;28;20116;-62
2022/08/24 02:54:43;;;;;;;8.40;5.35;;;;;;;15.02;100.00;90853.53;5052820;28;20041;-62
2022/08/24 02:57:08;;;;;;;9.35;6.00;;;;;;;15.11;100.00;90853.41;5052574;28;20033;-62
2022/08/24 02:59:34;;;;;;;12.88;7.97;;;;;;;15.01;100.00;90854.66;5052764;28;20441;-61
2022/08/24 03:01:59;;;;;;;9.75;6.28;;;;;;;15.03;100.00;90855.09;5052723;28;20033;-62
2022/08/24 03:04:25;;;;;;;6.75;5.43;;;;;;;15.08;100.00;90844.13;5052599;28;20032;-61
2022/08/24 03:06:51;;;;;;;8.30;6.00;;;;;;;15.18;100.00;90854.41;5052455;28;20049;-62
2022/08/24 03:09:17;;;;;;;11.85;5.72;;;;;;;15.18;100.00;90856.31;5169899;23;20469;-62
2022/08/24 03:11:43;;;;;;;9.25;5.78;;;;;;;15.11;100.00;90870.25;5031862;28;20446;-62
2022/08/24 03:14:08;;;;;;;8.63;5.38;;;;;;;15.11;100.00;90861.44;5031880;28;20025;-62
2022/08/24 03:16:34;;;;;;;9.25;5.82;;;;;;;15.01;100.00;90860.03;5031836;28;20355;-62
2022/08/24 03:18:59;;;;;;;7.57;5.45;;;;;;;14.95;100.00;90866.69;5031687;28;20033;-62
2022/08/24 03:21:25;;;;;;;6.43;4.70;;;;;;;14.93;100.00;90858.22;5032018;28;20099;-62
2022/08/24 03:23:51;;;;;;;10.18;5.13;;;;;;;15.00;100.00;90863.03;5031719;28;20406;-62
2022/08/24 03:26:16;;;;;;;8.95;5.30;;;;;;;15.10;100.00;90860.66;5031608;28;20030;-62
2022/08/24 03:28:42;;;;;;;7.60;5.18;;;;;;;15.08;100.00;90868.25;5031574;28;20040;-63
2022/08/24 03:31:08;;;;;;;9.38;5.88;;;;;;;15.08;100.00;90870.94;5031526;28;20056;-62
2022/08/24 03:33:33;;;;;;;9.23;5.78;;;;;;;15.09;100.00;90867.13;5031596;28;20063;-62
2022/08/24 03:35:59;;;;;;;7.38;5.18;;;;;;;15.13;100.00;90868.03;5032064;28;20546;-62
2022/08/24 03:38:24;;;;;;;10.00;5.60;;;;;;;15.24;100.00;90871.81;5031319;28;20387;-62
2022/08/24 03:40:50;;;;;;;9.43;5.50;;;;;;;15.20;100.00;90878.97;5031475;28;20108;-62
2022/08/24 03:46:01;;;;;;;8.68;4.63;;;;;;;15.29;100.00;90881.50;5031716;28;20567;-62
2022/08/24 03:48:29;;;;;;;30.10;17.88;;;;;;;15.31;100.00;90879.28;5013707;28;20057;-62
2022/08/24 03:50:55;;;;;;;14.13;8.57;;;;;;;15.22;100.00;90876.72;5031590;28;20033;-62
2022/08/24 03:53:20;;;;;;;10.07;5.80;;;;;;;15.30;100.00;90883.06;5030615;28;20048;-62
2022/08/24 03:55:45;;;;;;;11.13;6.57;;;;;;;15.31;100.00;90883.88;5030985;28;20025;-62
2022/08/24 03:58:11;;;;;;;9.18;6.18;;;;;;;15.34;100.00;90888.56;5030948;28;20148;-62
2022/08/24 04:00:39;;;;;;;6.68;5.07;;;;;;;15.37;100.00;90893.22;5031165;28;20475;-62
2022/08/24 04:03:05;;;;;;;8.50;5.20;;;;;;;15.34;100.00;90893.91;5031351;28;20033;-62
2022/08/24 04:05:31;;;;;;;7.00;4.90;;;;;;;15.29;100.00;90895.69;5031358;28;20036;-62
2022/08/24 04:07:56;;;;;;;6.72;4.80;;;;;;;15.50;100.00;90884.06;5030959;28;20060;-62
2022/08/24 04:10:22;;;;;;;9.35;5.95;;;;;;;15.60;100.00;90883.59;4991422;28;1153837;-62
2022/08/24 04:12:47;;;;;;;8.88;5.85;;;;;;;15.70;100.00;90880.44;5031765;28;20034;-62
2022/08/24 04:15:13;;;;;;;8.43;5.13;;;;;;;15.76;100.00;90889.78;5031652;28;20423;-62
2022/08/24 04:17:39;;;;;;;7.43;5.13;;;;;;;15.90;100.00;90886.72;5013912;28;20072;-62
2022/08/24 04:20:05;;;;;;;11.48;5.70;;;;;;;16.04;100.00;90889.03;5031795;28;20075;-62
2022/08/24 04:22:32;;;;;;;5.78;4.55;;;;;;;16.13;100.00;90887.00;5031547;28;20042;-62
2022/08/24 04:24:59;;;;;;;9.63;4.88;;;;;;;16.18;100.00;90886.72;5031177;28;20114;-62
2022/08/24 04:27:24;;;;;;;7.28;5.45;;;;;;;16.21;100.00;90891.41;5031551;28;20041;-62
2022/08/24 04:29:50;;;;;;;5.93;4.20;;;;;;;16.31;100.00;90888.22;5031372;28;20072;-62
2022/08/24 04:32:16;;;;;;;12.30;5.82;;;;;;;16.42;100.00;90891.97;5031345;28;20041;-62
2022/08/24 04:34:45;;;;;;;7.07;5.15;;;;;;;16.61;100.00;90885.16;5031392;28;20045;-62
2022/08/24 04:37:13;;;;;;;6.78;4.72;;;;;;;16.78;100.00;90892.91;5031549;28;20037;-63
2022/08/24 04:39:39;;;;;;;5.95;4.88;;;;;;;16.95;100.00;90897.91;5031483;28;20041;-63
2022/08/24 04:42:04;;;;;;;6.82;5.03;;;;;;;17.02;100.00;90895.38;5031823;28;20078;-63
2022/08/24 04:44:30;;;;;;;7.85;5.60;;;;;;;16.71;100.00;90898.06;5031243;28;20455;-63
2022/08/24 04:46:56;;;;;;;7.32;5.40;;;;;;;16.62;100.00;90897.44;5031204;28;20060;-63
2022/08/24 04:49:22;;;;;;;7.75;5.35;;;;;;;16.95;100.00;90897.91;5031130;28;20043;-63
2022/08/24 04:51:47;;;;;;;6.68;4.93;;;;;;;17.12;100.00;90902.16;5031225;28;20052;-63
2022/08/24 04:54:12;;;;;;;5.63;4.43;;;;;;;17.06;100.00;90890.13;5031134;28;20094;-63
2022/08/24 04:56:38;;;;;;;8.10;5.43;;;;;;;17.23;100.00;90888.97;5031077;28;20116;-63
2022/08/24 04:59:04;;;;;;;8.25;4.93;;;;;;;17.18;100.00;90875.78;5031017;28;20037;-63
2022/08/24 05:01:33;;;;;;;8.05;4.95;;;;;;;17.09;100.00;90884.03;5013376;28;20065;-63
2022/08/24 05:03:58;;;;;;;7.00;5.03;;;;;;;17.17;100.00;90883.06;5031338;28;20036;-63
2022/08/24 05:06:27;;;;;;;8.43;5.40;;;;;;;17.39;100.00;90884.34;5034225;28;20453;-63
2022/08/24 05:08:53;;;;;;;6.97;5.05;;;;;;;17.53;100.00;90883.88;5034933;28;20509;-63
2022/08/24 05:11:19;;;;;;;6.18;4.93;;;;;;;18.22;100.00;90880.31;5035394;28;20196;-63
2022/08/24 05:13:46;;;;;;;8.00;4.78;;;;;;;20.26;100.00;90876.16;5035068;28;20081;-63
2022/08/24 05:16:15;;;;;;;8.00;4.82;;;;;;;20.99;100.00;90868.41;5035047;28;20045;-63
2022/08/24 05:18:41;;;;;;;9.32;5.43;;;;;;;20.16;100.00;90863.28;5033962;28;20041;-64
2022/08/24 05:21:08;;;;;;;7.78;5.10;;;;;;;20.11;100.00;90872.50;5034887;28;20041;-63
2022/08/24 05:23:34;;;;;;;7.90;5.28;;;;;;;19.96;100.00;90871.53;5034761;28;20041;-64
2022/08/24 05:26:10;;;;;;;10.57;5.70;;;;;;;20.49;100.00;90866.00;5034826;28;20128;-63
2022/08/24 05:28:37;;;;;;;6.68;5.32;;;;;;;20.51;100.00;90868.31;5034696;28;20033;-64
2022/08/24 05:31:11;;;;;;;7.40;5.13;;;;;;;21.10;100.00;90872.75;5034762;28;20061;-64
2022/08/24 05:33:37;;;;;;;10.13;4.75;;;;;;;20.79;100.00;90873.25;5034619;28;20045;-63
2022/08/24 05:36:05;;;;;;;9.27;5.25;;;;;;;20.33;100.00;90868.88;5034858;28;20119;-64
2022/08/24 05:38:32;;;;;;;7.28;5.03;;;;;;;20.06;100.00;90872.06;5034524;28;20045;-65
2022/08/24 05:40:58;;;;;;;7.70;4.72;;;;;;;19.76;100.00;90867.44;5034291;28;20132;-64
2022/08/24 05:43:24;;;;;;;7.45;5.07;;;;;;;19.94;100.00;90873.84;5034336;28;20148;-63
2022/08/24 05:45:49;;;;;;;6.40;3.80;;;;;;;21.10;100.00;90877.38;5034441;28;20045;-64
2022/08/24 05:48:15;;;;;;;9.88;4.55;;;;;;;23.27;100.00;90881.16;5034255;28;20038;-64
2022/08/24 05:50:40;;;;;;;4.95;4.20;;;;;;;24.34;87.57;90875.59;5034551;28;20112;-64
2022/08/24 05:53:06;;;;;;;4.68;3.50;;;;;;;23.20;88.08;90881.94;5034537;28;20034;-64
2022/08/24 05:55:31;;;;;;;3.28;2.60;;;;;;;23.78;91.61;90882.69;5033484;28;20454;-64
2022/08/24 05:57:57;;;;;;;8.88;6.60;;;;;;;24.63;80.21;90878.97;5033891;28;20046;-65
2022/08/24 06:00:24;;;;;;;4.53;3.55;;;;;;;23.53;85.17;90883.47;5034344;28;20041;-65
2022/08/24 06:02:51;;;;;;;6.60;4.13;;;;;;;23.27;92.92;90875.72;5034103;28;20037;-65
2022/08/24 06:05:17;;;;;;;3.92;3.42;;;;;;;24.90;81.92;90868.31;5033967;28;20498;-64
2022/08/24 06:07:42;;;;;;;5.95;3.70;;;;;;;25.74;72.62;90871.66;5034005;28;20041;-63
2022/08/24 06:10:09;;;;;;;6.90;3.90;;;;;;;26.03;71.29;90874.09;5033635;28;20477;-64
2022/08/24 06:12:35;;;;;;;4.70;3.20;;;;;;;28.31;62.96;90878.00;5033885;28;20052;-64
2022/08/24 06:15:00;;;;;;;4.95;3.80;;;;;;;28.08;60.38;90883.44;5033677;28;20415;-64
2022/08/24 06:17:26;;;;;;;3.92;3.17;;;;;;;28.39;59.20;90883.31;5032873;28;20044;-64
2022/08/24 06:19:52;;;;;;;4.10;3.28;;;;;;;27.77;60.42;90876.56;5033541;28;20080;-62
2022/08/24 06:22:17;;;;;;;7.57;3.33;;;;;;;29.52;55.24;90875.53;5033575;28;20076;-62
2022/08/24 06:27:27;;;;;;;4.60;3.47;;;;;;;24.81;68.80;90871.50;5033784;28;20044;-62
2022/08/24 06:29:56;;;;;;;4.72;3.45;;;;;;;24.69;75.45;90872.72;5033372;28;20531;-63
2022/08/24 06:32:22;;;;;;;4.40;3.47;;;;;;;24.43;79.83;90876.72;5033480;28;20033;-64
2022/08/24 06:34:49;;;;;;;4.25;3.15;;;;;;;23.70;85.90;90881.16;5033496;28;20431;-64
2022/08/24 06:37:15;;;;;;;5.95;3.05;;;;;;;23.45;90.52;90876.47;5033679;28;20052;-62
2022/08/24 06:39:40;;;;;;;5.45;3.60;;;;;;;23.91;87.11;90883.84;5033367;28;20037;-62
2022/08/24 06:42:06;;;;;;;4.85;3.78;;;;;;;23.48;89.59;90889.28;5033388;28;20045;-62
2022/08/24 06:44:32;;;;;;;4.30;3.53;;;;;;;22.24;100.00;90889.00;5033282;28;20091;-61
2022/08/24 06:46:57;;;;;;;6.18;4.03;;;;;;;22.48;100.00;90887.56;5033278;28;20060;-63
2022/08/24 06:49:23;;;;;;;5.97;3.72;;;;;;;22.26;100.00;90887.47;5032994;28;20045;-63
2022/08/24 06:51:50;;;;;;;6.20;4.15;;;;;;;23.21;97.82;90880.00;5033284;28;20106;-63
2022/08/24 06:54:15;;;;;;;4.95;3.53;;;;;;;24.08;92.78;90888.47;5033194;28;20045;-64
2022/08/24 06:56:41;;;;;;;5.00;3.63;;;;;;;25.09;82.90;90886.91;5033279;28;20063;-64
2022/08/24 06:59:07;;;;;;;5.22;3.13;;;;;;;25.13;77.55;90886.91;5032984;28;20490;-64
2022/08/24 07:01:32;;;;;;;5.43;3.67;;;;;;;25.30;79.16;90894.16;5033084;28;20041;-63
2022/08/24 07:03:58;;;;;;;6.22;3.80;;;;;;;25.32;75.48;90892.59;5033228;28;20082;-64
2022/08/24 07:06:24;;;;;;;4.28;3.50;;;;;;;24.71;78.04;90897.56;5032861;28;20498;-64
2022/08/24 07:08:51;;;;;;;4.32;3.15;;;;;;;25.42;76.97;90898.38;5037307;28;20041;-63
2022/08/24 07:11:18;;;;;;;4.65;3.65;;;;;;;24.44;81.05;90897.28;5052900;28;20045;-66
2022/08/24 07:13:48;;;;;;;4.78;3.22;;;;;;;24.44;81.71;90894.56;5053069;28;20430;-67
2022/08/24 07:16:15;;;;;;;7.43;3.65;;;;;;;26.65;71.58;90894.88;5052641;28;20049;-67
2022/08/24 07:18:41;;;;;;;3.67;3.00;;;;;;;28.16;64.69;90903.25;5052376;28;20037;-67
2022/08/24 07:21:06;;;;;;;5.88;3.70;;;;;;;31.11;56.43;90898.53;5052572;28;20403;-66
2022/08/24 07:23:35;;;;;;;4.45;3.28;;;;;;;33.47;47.09;90900.66;5052530;28;20481;-65
2022/08/24 07:26:10;;;;;;;3.97;3.28;;;;;;;34.08;44.50;90905.38;5052558;28;20064;-65
2022/08/24 07:28:39;;;;;;;5.15;3.50;;;;;;;35.33;43.30;90900.13;5051114;28;20044;-65
2022/08/24 07:31:06;;;;;;;3.50;2.70;;;;;;;37.62;39.18;90902.41;5052448;28;20037;-65
2022/08/24 07:33:32;;;;;;;5.13;3.13;;;;;;;37.65;37.70;90909.78;5052626;28;20044;-65
2022/08/24 07:35:58;;;;;;;3.15;2.60;;;;;;;36.17;39.84;90893.91;5052416;28;20051;-66
2022/08/24 07:38:25;;;;;;;6.68;3.30;;;;;;;34.03;42.75;90897.69;5052122;28;20057;-66
2022/08/24 07:40:51;;;;;;;4.25;3.17;;;;;;;33.40;44.04;90898.16;5052410;28;20076;-67
2022/08/24 07:43:17;;;;;;;5.18;3.28;;;;;;;32.81;44.10;90888.84;5052123;28;20418;-66
2022/08/24 07:45:42;;;;;;;4.00;2.70;;;;;;;31.07;48.93;90879.38;5052097;28;20033;-66
2022/08/24 07:48:08;;;;;;;5.20;3.05;;;;;;;30.21;50.36;90880.94;5051973;28;20029;-66
2022/08/24 07:50:36;;;;;;;4.65;3.25;;;;;;;27.53;56.13;90882.00;5051654;28;20049;-66
2022/08/24 07:53:01;;;;;;;6.25;3.40;;;;;;;27.69;57.87;90881.38;5052027;28;20041;-66
2022/08/24 07:55:27;;;;;;;2.90;2.60;;;;;;;28.05;56.75;90881.56;5051916;28;20044;-65
2022/08/24 07:57:53;;;;;;;3.63;2.53;;;;;;;30.05;52.87;90876.22;5051731;28;20040;-66
2022/08/24 08:00:20;;;;;;;3.95;3.00;;;;;;;32.41;49.38;90879.19;5051849;28;20411;-65
2022/08/24 08:02:46;;;;;;;3.85;2.88;;;;;;;32.40;47.00;90882.38;5051855;28;20525;-65
2022/08/24 08:05:18;;;;;;;2.83;2.50;;;;;;;29.47;52.10;90878.00;5051692;28;20044;-65
2022/08/24 08:07:43;;;;;;;3.10;2.80;;;;;;;28.06;56.90;90877.63;5033676;28;20537;-66
2022/08/24 08:10:10;;;;;;;3.90;3.20;;;;;;;27.99;59.14;90881.28;5051586;28;20053;-68
2022/08/24 08:12:36;;;;;;;2.70;2.50;;;;;;;27.61;58.85;90869.75;5051679;28;20037;-67
2022/08/24 08:15:02;;;;;;;2.85;2.33;;;;;;;29.74;55.73;90884.00;5051578;28;20043;-67
2022/08/24 08:17:28;;;;;;;3.78;2.70;;;;;;;31.04;50.75;90879.50;5051445;28;20095;-67
2022/08/24 08:19:53;;;;;;;3.50;2.70;;;;;;;30.31;52.70;90877.16;5051468;28;20044;-67
2022/08/24 08:25:06;;;;;;;2.78;2.35;;;;;;;31.77;50.13;90884.00;5051304;28;20048;-66
2022/08/24 08:27:31;;;;;;;3.28;2.50;;;;;;;30.62;50.07;90894.00;5051245;28;20119;-66
2022/08/24 08:29:57;;;;;;;3.17;2.75;;;;;;;29.08;54.85;90889.81;5051287;28;20487;-66
2022/08/24 08:32:23;;;;;;;4.10;2.75;;;;;;;30.21;52.82;90885.66;5051571;28;20104;-68
2022/08/24 08:34:48;;;;;;;2.80;2.50;;;;;;;30.20;52.16;90893.13;5051425;28;20556;-67
2022/08/24 08:37:14;;;;;;;2.50;2.30;;;;;;;30.20;52.91;90878.63;5051416;28;20072;-67
2022/08/24 08:39:40;;;;;;;2.88;2.45;;;;;;;31.87;48.42;90884.88;5050791;28;20574;-68
2022/08/24 08:42:22;;;;;;;2.47;2.28;;;;;;;31.71;50.49;90890.47;5051304;28;20033;-67
2022/08/24 08:45:25;;;;;;;3.43;2.40;;;;;;;33.68;45.53;90885.28;5051531;28;20406;-67
2022/08/24 08:47:59;;;;;;;3.80;2.57;;;;;;;34.88;42.38;90887.13;5051126;28;20055;-66
2022/08/24 08:50:29;;;;;;;5.75;3.00;;;;;;;35.69;41.74;90885.47;5051075;28;20052;-68
2022/08/24 08:53:22;;;;;;;7.75;3.05;;;;;;;35.95;40.25;90899.69;5051424;28;20078;-66
2022/08/24 08:55:52;;;;;;;;;;;;;;;35.04;41.65;90900.66;5051539;28;20034;-65
2022/08/24 08:58:23;;;;;;;2.55;2.22;;;;;;;36.06;39.91;90910.28;5050963;28;20336;-66
2022/08/24 09:00:56;;;;;;;2.83;2.40;;;;;;;36.49;38.74;90915.31;5051005;28;20059;-66
2022/08/24 09:03:25;;;;;;;3.15;2.67;;;;;;;37.01;38.87;90910.34;5051027;28;20040;-66
2022/08/24 09:06:04;;;;;;;9.38;3.72;;;;;;;36.14;39.15;90911.47;5050921;28;20045;-66
2022/08/24 09:08:58;;;;;;;5.35;3.00;;;;;;;33.64;42.95;90911.00;5050752;28;20037;-66
2022/08/24 09:11:49;;;;;;;3.60;2.42;;;;;;;32.23;44.61;90906.50;5050670;28;20505;-66
2022/08/24 09:14:51;;;;;;;4.47;2.50;;;;;;;33.61;44.05;90898.13;5050869;28;20044;-66
2022/08/24 09:17:40;;;;;;;3.78;2.60;;;;;;;35.89;39.48;90901.56;5019362;28;20036;-67
2022/08/24 09:20:41;;;;;;;3.50;2.47;;;;;;;33.90;42.80;90894.25;5050933;28;20029;-67
2022/08/24 09:23:31;;;;;;;3.30;3.00;;;;;;;35.58;40.58;90893.50;5050863;28;20017;-65
2022/08/24 09:26:11;;;;;;;3.13;2.53;;;;;;;37.00;37.41;90883.84;5050797;28;20025;-65
2022/08/24 09:28:43;;;;;;;6.38;3.60;;;;;;;36.73;37.99;90884.03;5050669;28;20029;-65
2022/08/24 09:31:24;;;;;;;2.40;2.22;;;;;;;36.15;37.81;90882.53;5050998;28;20028;-64
2022/08/24 09:34:12;;;;;;;4.05;3.03;;;;;;;36.09;39.37;90870.56;5050785;28;20108;-66
2022/08/24 09:36:56;;;;;;;3.95;2.95;;;;;;;36.86;37.15;90867.94;5050488;28;20025;-67
2022/08/24 09:39:24;;;;;;;3.30;2.63;;;;;;;38.50;35.11;90867.41;5050638;28;20052;-67
2022/08/24 09:42:07;;;;;;;3.38;3.08;;;;;;;39.19;35.02;90849.84;5050708;28;20068;-67
2022/08/24 09:44:35;;;;;;;4.15;3.15;;;;;;;38.17;35.38;90851.78;5050441;28;20034;-66
2022/08/24 09:47:38;;;;;;;3.00;2.70;;;;;;;36.60;36.84;90848.25;5050653;28;20033;-69
2022/08/24 09:50:13;;;;;;;;;;;;;;;37.83;35.38;90842.19;5050928;28;20032;-70
2022/08/24 09:52:44;;;;;;;2.47;2.00;;;;;;;38.37;34.29;90833.66;5052182;28;19912;-66
2022/08/24 09:55:30;;;;;;;3.65;2.90;;;;;;;37.07;36.45;90835.56;5054281;28;20041;-65
2022/08/24 09:58:34;;;;;;;2.50;2.30;;;;;;;37.07;35.83;90836.31;5054046;28;20502;-65
2022/08/24 10:01:30;;;;;;;2.92;2.63;;;;;;;37.30;35.39;90840.31;5054183;28;20037;-64
2022/08/24 10:04:01;;;;;;;9.35;6.57;;;;;;;38.03;35.47;90847.03;5054161;28;20025;-64
2022/08/24 10:06:51;;;;;;;2.38;2.17;;;;;;;39.48;33.36;90834.19;5054028;28;20037;-65
2022/08/24 10:10:12;;;;;;;3.08;2.50;;;;;;;39.85;32.26;90841.84;5053663;28;20064;-65
2022/08/24 10:13:02;;;;;;;4.88;2.22;;;;;;;38.04;33.98;90840.25;5044775;28;20033;-63
2022/08/24 10:15:53;;;;;;;4.63;2.42;;;;;;;37.72;33.91;90839.22;5053794;28;20104;-67
2022/08/24 10:18:21;;;;;;;3.05;2.63;;;;;;;37.75;33.40;90827.19;5053590;28;20025;-66
2022/08/24 10:21:02;;;;;;;3.05;2.75;;;;;;;38.27;33.96;90827.44;5053657;28;20032;-65
2022/08/24 10:23:39;;;;;;;2.75;2.55;;;;;;;37.99;33.98;90825.00;5053725;28;20029;-65
2022/08/24 10:26:19;;;;;;;2.90;2.60;;;;;;;37.97;32.76;90833.06;5053617;28;20032;-65
2022/08/24 10:28:48;;;;;;;3.65;3.05;;;;;;;38.93;33.20;90824.75;5053733;28;20032;-66
2022/08/24 10:31:21;;;;;;;3.97;2.47;;;;;;;39.33;33.40;90820.38;5053619;28;20025;-66
2022/08/24 10:34:06;;;;;;;3.67;2.85;;;;;;;38.87;33.52;90829.50;5053478;28;20512;-66
2022/08/24 10:36:59;;;;;;;2.90;2.58;;;;;;;38.19;34.56;90827.13;5053355;28;20119;-65
2022/08/24 10:39:40;;;;;;;4.35;2.65;;;;;;;39.09;33.32;90817.09;5053388;28;20490;-66
2022/08/24 10:45:48;;;;;;;5.75;2.47;;;;;;;39.27;33.80;90825.13;5053575;28;20040;-67
2022/08/24 10:48:28;;;;;;;;;;;;;;;38.33;33.91;90819.94;5053534;28;20029;-67
2022/08/24 10:51:03;;;;;;;5.18;3.53;;;;;;;36.05;36.58;90818.13;5053193;28;20320;-67
2022/08/24 10:53:31;;;;;;;3.03;2.67;;;;;;;34.12;38.36;90809.38;5053088;28;20461;-67
2022/08/24 10:56:13;;;;;;;6.13;3.35;;;;;;;34.27;40.77;90806.00;5053144;28;20485;-66
2022/08/24 10:59:15;;;;;;;4.70;2.33;;;;;;;34.10;39.56;90814.59;5052932;28;20082;-66
2022/08/24 11:01:59;;;;;;;2.70;2.40;;;;;;;32.31;42.84;90814.22;5053000;28;20271;-66
2022/08/24 11:04:28;;;;;;;4.63;2.85;;;;;;;32.61;42.67;90807.25;5052593;28;20090;-66
2022/08/24 11:07:05;;;;;;;4.78;2.53;;;;;;;31.06;44.95;90813.88;5053139;28;20033;-66
2022/08/24 11:09:52;;;;;;;3.00;2.70;;;;;;;31.04;44.71;90811.56;5052597;28;20053;-66
2022/08/24 11:12:29;;;;;;;3.58;3.00;;;;;;;28.81;48.11;90816.00;5052734;28;20060;-65
2022/08/24 11:14:59;;;;;;;4.03;2.60;;;;;;;28.66;50.34;90815.53;5052714;28;20032;-67
2022/08/24 11:17:27;;;;;;;6.85;3.58;;;;;;;28.70;51.05;90813.47;5053098;28;20029;-70
2022/08/24 11:19:53;;;;;;;4.03;2.83;;;;;;;28.10;51.48;90807.25;5054074;28;20052;-68
2022/08/24 11:22:40;;;;;;;4.38;2.90;;;;;;;28.14;53.92;90807.94;5052697;28;20040;-69
2022/08/24 11:25:31;;;;;;;2.95;2.60;;;;;;;29.43;nan;90806.78;5052632;28;20063;-68
2022/08/24 11:28:39;;;;;;;3.22;2.80;;;;;;;29.77;49.72;90808.34;5052434;28;20037;-68
2022/08/24 11:31:19;;;;;;;4.28;2.88;;;;;;;32.27;46.30;90816.34;5044687;28;20048;-68
2022/08/24 11:33:48;;;;;;;3.90;3.30;;;;;;;33.67;42.65;90796.22;5052239;28;20040;-67
2022/08/24 11:36:18;;;;;;;4.47;2.97;;;;;;;33.20;42.48;90807.50;5049600;28;20426;-66
2022/08/24 11:38:45;;;;;;;5.43;3.05;;;;;;;31.84;44.95;90797.72;5052141;28;20065;-66
2022/08/24 11:41:24;;;;;;;3.83;2.72;;;;;;;30.34;47.81;90790.41;5052014;28;20079;-71
2022/08/24 11:44:17;;;;;;;4.63;2.70;;;;;;;29.98;49.36;90790.56;5052208;28;20116;-68
2022/08/24 11:47:02;;;;;;;4.45;2.90;;;;;;;31.04;47.95;90781.34;5052065;28;20024;-68
2022/08/24 11:49:38;;;;;;;2.70;2.45;;;;;;;33.52;44.77;90787.72;5051831;28;20399;-68
2022/08/24 11:52:16;;;;;;;6.25;3.13;;;;;;;35.55;41.01;90786.50;5052009;28;20406;-68
2022/08/24 11:54:59;;;;;;;6.00;3.22;;;;;;;36.77;38.89;90790.34;5051910;28;20033;-68
2022/08/24 11:57:45;;;;;;;2.78;2.30;;;;;;;37.58;37.34;90788.03;5051804;28;20112;-68
2022/08/24 12:00:20;;;;;;;7.22;3.05;;;;;;;37.46;37.61;90792.63;5052027;28;20406;-69